createdAt,value
2019-04-07T00:00:07.433Z,93767.04
2019-04-07T00:05:12.391Z,93768.98
2019-04-07T00:10:11.044Z,93761.94
2019-04-07T00:15:11.749Z,93758.63
2019-04-07T00:20:13.630Z,93761.34
2019-04-07T00:25:14.440Z,93758.34
2019-04-07T00:30:15.764Z,93760.44
2019-04-07T00:35:26.708Z,93755.27
2019-04-07T00:40:18.557Z,93755.69
2019-04-07T00:45:20.578Z,93759.80
2019-04-07T00:50:21.860Z,93768.33
2019-04-07T00:55:23.112Z,93763.02
2019-04-07T01:00:24.432Z,93764.20
2019-04-07T01:05:35.482Z,93759.11
2019-04-07T01:10:27.806Z,93755.89
2019-04-07T01:15:29.414Z,93754.49
2019-04-07T01:20:30.589Z,93760.59
2019-04-07T01:25:31.887Z,93761.16
2019-04-07T01:30:33.660Z,93757.75
2019-04-07T01:35:45.092Z,93760.91
2019-04-07T01:40:37.429Z,93758.67
2019-04-07T01:45:39.176Z,93764.16
2019-04-07T01:56:16.345Z,93758.72
2019-04-07T02:01:18.464Z,93770.20
2019-04-07T02:11:53.004Z,93766.40
2019-04-07T02:16:54.340Z,93759.86
2019-04-07T02:27:27.001Z,93766.83
2019-04-07T02:32:36.207Z,93761.70
2019-04-07T02:37:39.069Z,93758.41
2019-04-07T02:42:44.032Z,93760.78
2019-04-07T02:47:51.293Z,93769.95
2019-04-07T02:52:57.194Z,93767.41
2019-04-07T02:58:04.515Z,93772.11
2019-04-07T03:03:10.897Z,93777.25
2019-04-07T03:08:18.648Z,93784.16
2019-04-07T03:13:21.051Z,93784.76
2019-04-07T03:24:00.205Z,93789.97
2019-04-07T03:29:20.941Z,93787.67
2019-04-07T03:34:24.103Z,93793.83
2019-04-07T03:44:53.931Z,93787.76
2019-04-07T03:49:58.218Z,93787.64
2019-04-07T04:01:20.700Z,93805.92
2019-04-07T04:06:40.777Z,93799.48
2019-04-07T04:17:16.486Z,93806.09
2019-04-07T04:22:17.058Z,93800.19
2019-04-07T04:27:18.412Z,93805.23
2019-04-07T04:32:20.759Z,93807.45
2019-04-07T04:37:34.308Z,93810.94
2019-04-07T04:42:22.966Z,93813.40
2019-04-07T04:47:25.115Z,93819.26
2019-04-07T04:52:26.391Z,93822.08
2019-04-07T04:57:28.444Z,93835.11
2019-04-07T05:02:29.990Z,93839.27
2019-04-07T05:07:31.868Z,93845.70
2019-04-07T05:12:35.678Z,93852.66
2019-04-07T05:17:37.014Z,93864.57
2019-04-07T05:22:39.094Z,93867.92
2019-04-07T05:27:40.443Z,93873.37
2019-04-07T05:32:43.123Z,93877.03
2019-04-07T05:37:43.942Z,93869.81
2019-04-07T05:42:45.487Z,93871.46
2019-04-07T05:47:48.672Z,93865.76
2019-04-07T05:52:48.780Z,93858.56
2019-04-07T05:57:49.705Z,93849.13
2019-04-07T06:02:50.838Z,93863.75
2019-04-07T06:07:52.712Z,93864.84
2019-04-07T06:12:54.087Z,93874.50
2019-04-07T06:17:59.517Z,93879.19
2019-04-07T06:22:57.578Z,93876.54
2019-04-07T06:27:58.873Z,93889.33
2019-04-07T06:33:00.635Z,93879.38
2019-04-07T06:38:05.299Z,93874.53
2019-04-07T06:43:05.262Z,93882.45
2019-04-07T06:48:07.741Z,93885.69
2019-04-07T06:53:16.318Z,93885.28
2019-04-07T06:58:12.056Z,93893.50
2019-04-07T07:03:16.995Z,93901.37
2019-04-07T07:13:53.255Z,93915.20
2019-04-07T07:18:56.832Z,93911.43
2019-04-07T07:23:57.964Z,93909.22
2019-04-07T07:28:59.211Z,93909.61
2019-04-07T07:34:00.550Z,93916.31
2019-04-07T07:39:05.201Z,93919.63
2019-04-07T07:44:04.158Z,93930.22
2019-04-07T07:49:06.028Z,93933.94
2019-04-07T07:54:06.832Z,93923.59
2019-04-07T07:59:08.818Z,93927.63
2019-04-07T08:04:10.721Z,93926.45
2019-04-07T08:09:15.201Z,93943.03
2019-04-07T08:14:16.679Z,93946.42
2019-04-07T08:19:15.370Z,93951.54
2019-04-07T08:24:19.160Z,93956.13
2019-04-07T08:29:18.906Z,93947.61
2019-04-07T08:34:22.130Z,93952.69
2019-04-07T08:39:26.648Z,93957.95
2019-04-07T08:44:27.643Z,93955.64
2019-04-07T08:49:27.631Z,93954.86
2019-04-07T08:54:29.584Z,93946.73
2019-04-07T08:59:30.437Z,93957.53
2019-04-07T09:04:32.109Z,93958.06
2019-04-07T09:09:36.868Z,93964.71
2019-04-07T09:14:41.122Z,93967.42
2019-04-07T09:20:09.147Z,93973.44
2019-04-07T09:25:26.214Z,93970.89
2019-04-07T09:36:04.053Z,93980.16
2019-04-07T09:41:12.089Z,93973.73
2019-04-07T09:46:16.920Z,93973.96
2019-04-07T09:51:18.686Z,93981.11
2019-04-07T09:56:20.618Z,93978.20
2019-04-07T10:01:27.807Z,93984.22
2019-04-07T10:06:39.279Z,93986.69
2019-04-07T10:11:41.748Z,93981.56
2019-04-07T10:16:43.754Z,93987.09
2019-04-07T10:21:45.081Z,93990.09
2019-04-07T10:26:49.946Z,93986.82
2019-04-07T10:31:56.574Z,93990.62
2019-04-07T10:42:42.057Z,93991.56
2019-04-07T10:47:56.833Z,93994.56
2019-04-07T10:52:58.101Z,93989.93
2019-04-07T10:58:11.468Z,93986.85
2019-04-07T11:03:15.074Z,93990.47
2019-04-07T11:13:53.343Z,93978.91
2019-04-07T11:18:54.964Z,93981.78
2019-04-07T11:23:55.612Z,93980.17
2019-04-07T11:29:02.858Z,93990.28
2019-04-07T11:34:10.880Z,93984.87
2019-04-07T11:39:17.686Z,93985.77
2019-04-07T11:44:21.583Z,93990.20
2019-04-07T11:49:29.032Z,93990.09
2019-04-07T11:54:35.592Z,93981.47
2019-04-07T11:59:37.687Z,93980.51
2019-04-07T12:10:35.965Z,93978.02
2019-04-07T12:15:39.956Z,93978.69
2019-04-07T12:26:14.109Z,93967.36
2019-04-07T12:31:23.846Z,93966.27
2019-04-07T12:42:08.337Z,93965.70
2019-04-07T12:47:09.117Z,93966.39
2019-04-07T12:52:15.192Z,93961.95
2019-04-07T12:57:21.934Z,93962.02
2019-04-07T13:02:25.675Z,93955.91
2019-04-07T13:07:40.309Z,93945.59
2019-04-07T13:12:44.756Z,93929.16
2019-04-07T13:23:22.284Z,93921.53
2019-04-07T13:28:25.958Z,93926.70
2019-04-07T13:33:33.525Z,93927.44
2019-04-07T13:38:37.173Z,93920.84
2019-04-07T13:43:53.346Z,93930.67
2019-04-07T13:49:00.804Z,93930.81
2019-04-07T13:59:34.842Z,93933.69
2019-04-07T14:04:48.858Z,93929.41
2019-04-07T14:10:01.397Z,93932.84
2019-04-07T14:15:00.220Z,93934.61
2019-04-07T14:20:01.475Z,93939.52
2019-04-07T14:25:06.845Z,93943.94
2019-04-07T14:30:10.119Z,93946.44
2019-04-07T14:40:58.242Z,93946.59
2019-04-07T14:46:10.465Z,93941.80
2019-04-07T14:51:14.319Z,93945.81
2019-04-07T15:01:53.908Z,93940.47
2019-04-07T15:07:04.402Z,93938.58
2019-04-07T15:12:14.696Z,93944.19
2019-04-07T15:17:09.447Z,93937.25
2019-04-07T15:22:19.629Z,93944.93
2019-04-07T15:27:24.274Z,93940.84
2019-04-07T15:32:26.566Z,93951.77
2019-04-07T15:37:25.078Z,93947.69
2019-04-07T15:42:35.124Z,93953.62
2019-04-07T15:47:27.664Z,93956.80
2019-04-07T15:52:31.472Z,93952.33
2019-04-07T15:57:31.252Z,93956.18
2019-04-07T16:02:33.540Z,93953.80
2019-04-07T16:07:34.137Z,93965.22
2019-04-07T16:12:44.214Z,93965.55
2019-04-07T16:17:38.339Z,93966.03
2019-04-07T16:22:38.856Z,93974.49
2019-04-07T16:27:47.733Z,93968.39
2019-04-07T16:32:49.712Z,93971.17
2019-04-07T16:37:52.084Z,93985.15
2019-04-07T16:43:04.426Z,93982.53
2019-04-07T16:47:55.113Z,93975.48
2019-04-07T16:52:56.435Z,93985.41
2019-04-07T16:58:01.004Z,93991.11
2019-04-07T17:02:59.075Z,93996.88
2019-04-07T17:08:00.389Z,93994.70
2019-04-07T17:13:13.572Z,93997.64
2019-04-07T17:18:03.085Z,93992.52
2019-04-07T17:23:04.951Z,94000.69
2019-04-07T17:28:06.480Z,94008.03
2019-04-07T17:33:08.158Z,94008.05
2019-04-07T17:38:08.996Z,94018.55
2019-04-07T17:43:11.821Z,94021.41
2019-04-07T17:48:20.187Z,94025.14
2019-04-07T17:53:28.579Z,94026.92
2019-04-07T17:58:31.015Z,94036.61
2019-04-07T18:09:12.842Z,94053.94
2019-04-07T18:14:13.077Z,94059.17
2019-04-07T18:24:53.088Z,94078.35
2019-04-07T18:30:00.759Z,94074.60
2019-04-07T18:35:05.293Z,94080.19
2019-04-07T18:40:13.206Z,94079.94
2019-04-07T18:45:21.749Z,94091.14
2019-04-07T18:55:57.859Z,94109.84
2019-04-07T19:01:04.182Z,94110.48
2019-04-07T19:06:06.739Z,94109.23
2019-04-07T19:11:14.239Z,94120.44
2019-04-07T19:16:19.122Z,94129.24
2019-04-07T19:21:22.533Z,94143.89
2019-04-07T19:26:24.702Z,94128.97
2019-04-07T19:37:04.529Z,94153.87
2019-04-07T19:47:55.958Z,94167.42
2019-04-07T19:52:59.526Z,94173.80
2019-04-07T19:58:05.715Z,94169.77
2019-04-07T20:03:11.781Z,94187.66
2019-04-07T20:08:12.165Z,94194.64
2019-04-07T20:13:18.103Z,94200.63
2019-04-07T20:18:28.009Z,94195.97
2019-04-07T20:23:31.871Z,94194.91
2019-04-07T20:28:36.222Z,94197.71
2019-04-07T20:33:43.456Z,94202.98
2019-04-07T20:38:47.898Z,94201.64
2019-04-07T20:49:34.629Z,94201.52
2019-04-07T21:00:10.458Z,94211.54
2019-04-07T21:05:15.620Z,94217.05
2019-04-07T21:10:19.014Z,94221.29
2019-04-07T21:15:30.011Z,94207.77
2019-04-07T21:20:39.040Z,94209.52
2019-04-07T21:25:44.891Z,94206.54
2019-04-07T21:30:50.401Z,94213.23
2019-04-07T21:35:57.615Z,94223.63
2019-04-07T21:46:48.430Z,94232.78
2019-04-07T21:51:55.339Z,94232.89
2019-04-07T21:57:00.220Z,94227.77
2019-04-07T22:07:33.569Z,94237.77
2019-04-07T22:12:33.911Z,94249.30
2019-04-07T22:17:37.089Z,94250.12
2019-04-07T22:22:36.491Z,94253.64
2019-04-07T22:27:37.856Z,94253.68
2019-04-07T22:32:39.194Z,94246.82
2019-04-07T22:37:40.506Z,94240.13
2019-04-07T22:42:45.458Z,94254.53
2019-04-07T22:47:43.393Z,94257.55
2019-04-07T22:52:47.438Z,94255.72
2019-04-07T22:57:46.544Z,94257.17
2019-04-07T23:02:48.587Z,94258.30
2019-04-07T23:07:50.192Z,94253.34
2019-04-07T23:12:51.438Z,94265.12
2019-04-07T23:17:53.528Z,94269.89
2019-04-07T23:22:54.254Z,94277.49
2019-04-07T23:27:56.320Z,94278.13
2019-04-07T23:32:57.749Z,94281.37
2019-04-07T23:37:58.229Z,94279.87
2019-04-07T23:43:00.571Z,94285.44
2019-04-07T23:48:01.989Z,94280.34
2019-04-07T23:53:21.925Z,94287.06
2019-04-07T23:58:23.333Z,94295.02
